sensor_id;sensor_type;location;lat;lon;timestamp;P1;durP1;ratioP1;P2;durP2;ratioP2
11541;SDS011;5827;49.482;7.716;2023-03-04T00:00:51;87.47;;;45.97;;
11541;SDS011;5827;49.482;7.716;2023-03-04T00:02:53;89.28;;;46.20;;
11541;SDS011;5827;49.482;7.716;2023-03-04T00:04:56;84.05;;;45.67;;
11541;SDS011;5827;49.482;7.716;2023-03-04T00:06:57;87.00;;;45.47;;
11541;SDS011;5827;49.482;7.716;2023-03-04T00:08:59;81.38;;;43.78;;
11541;SDS011;5827;49.482;7.716;2023-03-04T00:11:00;79.90;;;44.15;;
11541;SDS011;5827;49.482;7.716;2023-03-04T00:13:02;82.90;;;43.95;;
11541;SDS011;5827;49.482;7.716;2023-03-04T00:15:04;85.25;;;45.38;;
11541;SDS011;5827;49.482;7.716;2023-03-04T00:17:06;81.90;;;45.20;;
11541;SDS011;5827;49.482;7.716;2023-03-04T00:19:08;84.32;;;45.28;;
11541;SDS011;5827;49.482;7.716;2023-03-04T00:21:11;83.45;;;44.38;;
11541;SDS011;5827;49.482;7.716;2023-03-04T00:23:13;82.15;;;43.88;;
11541;SDS011;5827;49.482;7.716;2023-03-04T00:25:14;82.93;;;44.72;;
11541;SDS011;5827;49.482;7.716;2023-03-04T00:27:16;86.50;;;45.50;;
11541;SDS011;5827;49.482;7.716;2023-03-04T00:29:18;83.63;;;44.63;;
11541;SDS011;5827;49.482;7.716;2023-03-04T00:31:20;86.35;;;44.53;;
11541;SDS011;5827;49.482;7.716;2023-03-04T00:33:22;83.35;;;44.50;;
11541;SDS011;5827;49.482;7.716;2023-03-04T00:35:23;85.88;;;45.50;;
11541;SDS011;5827;49.482;7.716;2023-03-04T00:37:26;87.72;;;46.28;;
11541;SDS011;5827;49.482;7.716;2023-03-04T00:39:28;81.93;;;45.03;;
11541;SDS011;5827;49.482;7.716;2023-03-04T00:41:29;85.63;;;45.70;;
11541;SDS011;5827;49.482;7.716;2023-03-04T00:43:31;83.20;;;45.03;;
11541;SDS011;5827;49.482;7.716;2023-03-04T00:45:33;85.47;;;44.58;;
11541;SDS011;5827;49.482;7.716;2023-03-04T00:47:34;85.93;;;45.05;;
11541;SDS011;5827;49.482;7.716;2023-03-04T00:49:36;82.30;;;44.50;;
11541;SDS011;5827;49.482;7.716;2023-03-04T00:51:37;82.15;;;43.70;;
11541;SDS011;5827;49.482;7.716;2023-03-04T00:53:40;79.25;;;43.00;;
11541;SDS011;5827;49.482;7.716;2023-03-04T00:55:42;84.07;;;44.58;;
11541;SDS011;5827;49.482;7.716;2023-03-04T00:57:43;87.18;;;44.83;;
11541;SDS011;5827;49.482;7.716;2023-03-04T00:59:45;84.22;;;44.45;;
11541;SDS011;5827;49.482;7.716;2023-03-04T01:01:46;81.53;;;42.92;;
11541;SDS011;5827;49.482;7.716;2023-03-04T01:03:48;84.28;;;44.60;;
11541;SDS011;5827;49.482;7.716;2023-03-04T01:05:49;78.40;;;43.55;;
11541;SDS011;5827;49.482;7.716;2023-03-04T01:07:51;81.45;;;43.45;;
11541;SDS011;5827;49.482;7.716;2023-03-04T01:09:53;76.30;;;41.20;;
11541;SDS011;5827;49.482;7.716;2023-03-04T01:11:55;78.20;;;42.63;;
11541;SDS011;5827;49.482;7.716;2023-03-04T01:13:57;75.45;;;40.83;;
11541;SDS011;5827;49.482;7.716;2023-03-04T01:15:58;74.55;;;41.25;;
11541;SDS011;5827;49.482;7.716;2023-03-04T01:18:02;79.97;;;42.47;;
11541;SDS011;5827;49.482;7.716;2023-03-04T01:20:04;79.88;;;42.42;;
11541;SDS011;5827;49.482;7.716;2023-03-04T01:22:07;73.03;;;40.60;;
11541;SDS011;5827;49.482;7.716;2023-03-04T01:24:09;78.53;;;43.00;;
11541;SDS011;5827;49.482;7.716;2023-03-04T01:26:12;82.93;;;44.00;;
11541;SDS011;5827;49.482;7.716;2023-03-04T01:28:14;79.57;;;42.67;;
11541;SDS011;5827;49.482;7.716;2023-03-04T01:30:15;70.93;;;40.28;;
11541;SDS011;5827;49.482;7.716;2023-03-04T01:32:17;69.93;;;39.97;;
11541;SDS011;5827;49.482;7.716;2023-03-04T01:34:19;72.38;;;41.13;;
11541;SDS011;5827;49.482;7.716;2023-03-04T01:36:20;68.65;;;39.33;;
11541;SDS011;5827;49.482;7.716;2023-03-04T01:38:22;71.20;;;40.55;;
11541;SDS011;5827;49.482;7.716;2023-03-04T01:40:23;69.25;;;40.47;;
11541;SDS011;5827;49.482;7.716;2023-03-04T01:42:26;63.28;;;38.25;;
11541;SDS011;5827;49.482;7.716;2023-03-04T01:44:31;64.53;;;38.43;;
11541;SDS011;5827;49.482;7.716;2023-03-04T01:46:33;67.80;;;39.17;;
11541;SDS011;5827;49.482;7.716;2023-03-04T01:48:35;68.95;;;38.47;;
11541;SDS011;5827;49.482;7.716;2023-03-04T01:50:38;71.20;;;39.97;;
11541;SDS011;5827;49.482;7.716;2023-03-04T01:52:39;71.25;;;38.45;;
11541;SDS011;5827;49.482;7.716;2023-03-04T01:54:42;71.95;;;39.90;;
11541;SDS011;5827;49.482;7.716;2023-03-04T01:56:45;72.93;;;40.25;;
11541;SDS011;5827;49.482;7.716;2023-03-04T02:01:09;75.97;;;41.53;;
11541;SDS011;5827;49.482;7.716;2023-03-04T02:03:13;77.90;;;42.60;;
11541;SDS011;5827;49.482;7.716;2023-03-04T02:05:18;90.50;;;44.77;;
11541;SDS011;5827;49.482;7.716;2023-03-04T02:07:21;86.68;;;44.17;;
11541;SDS011;5827;49.482;7.716;2023-03-04T02:09:23;86.85;;;43.67;;
11541;SDS011;5827;49.482;7.716;2023-03-04T02:11:24;90.40;;;44.60;;
11541;SDS011;5827;49.482;7.716;2023-03-04T02:13:26;80.15;;;41.78;;
11541;SDS011;5827;49.482;7.716;2023-03-04T02:15:29;73.10;;;40.17;;
11541;SDS011;5827;49.482;7.716;2023-03-04T02:17:31;81.88;;;42.05;;
11541;SDS011;5827;49.482;7.716;2023-03-04T02:19:36;69.70;;;38.97;;
11541;SDS011;5827;49.482;7.716;2023-03-04T02:21:44;71.60;;;38.90;;
11541;SDS011;5827;49.482;7.716;2023-03-04T02:23:47;81.30;;;42.50;;
11541;SDS011;5827;49.482;7.716;2023-03-04T02:26:08;66.65;;;37.95;;
11541;SDS011;5827;49.482;7.716;2023-03-04T02:28:12;62.22;;;36.33;;
11541;SDS011;5827;49.482;7.716;2023-03-04T02:30:14;65.87;;;36.93;;
11541;SDS011;5827;49.482;7.716;2023-03-04T02:32:17;63.80;;;36.22;;
11541;SDS011;5827;49.482;7.716;2023-03-04T02:34:20;65.18;;;37.15;;
11541;SDS011;5827;49.482;7.716;2023-03-04T02:36:23;63.63;;;37.53;;
11541;SDS011;5827;49.482;7.716;2023-03-04T02:38:26;63.00;;;36.13;;
11541;SDS011;5827;49.482;7.716;2023-03-04T02:40:28;68.03;;;38.08;;
11541;SDS011;5827;49.482;7.716;2023-03-04T02:42:32;66.40;;;37.28;;
11541;SDS011;5827;49.482;7.716;2023-03-04T02:44:35;68.15;;;38.15;;
11541;SDS011;5827;49.482;7.716;2023-03-04T02:46:37;68.17;;;38.53;;
11541;SDS011;5827;49.482;7.716;2023-03-04T02:48:39;64.68;;;37.28;;
11541;SDS011;5827;49.482;7.716;2023-03-04T02:50:41;63.25;;;37.80;;
11541;SDS011;5827;49.482;7.716;2023-03-04T02:52:45;66.32;;;36.80;;
11541;SDS011;5827;49.482;7.716;2023-03-04T02:54:46;64.63;;;36.72;;
11541;SDS011;5827;49.482;7.716;2023-03-04T02:56:49;63.80;;;36.85;;
11541;SDS011;5827;49.482;7.716;2023-03-04T02:58:53;62.72;;;36.17;;
11541;SDS011;5827;49.482;7.716;2023-03-04T03:00:54;65.75;;;37.40;;
11541;SDS011;5827;49.482;7.716;2023-03-04T03:02:56;64.05;;;36.65;;
11541;SDS011;5827;49.482;7.716;2023-03-04T03:04:58;63.72;;;37.13;;
11541;SDS011;5827;49.482;7.716;2023-03-04T03:06:59;65.10;;;36.55;;
11541;SDS011;5827;49.482;7.716;2023-03-04T03:09:01;70.35;;;39.00;;
11541;SDS011;5827;49.482;7.716;2023-03-04T03:11:03;66.93;;;37.95;;
11541;SDS011;5827;49.482;7.716;2023-03-04T03:13:05;65.88;;;37.22;;
11541;SDS011;5827;49.482;7.716;2023-03-04T03:15:08;67.45;;;37.42;;
11541;SDS011;5827;49.482;7.716;2023-03-04T03:17:10;66.78;;;37.90;;
11541;SDS011;5827;49.482;7.716;2023-03-04T03:19:12;67.32;;;37.10;;
11541;SDS011;5827;49.482;7.716;2023-03-04T03:21:13;64.95;;;36.50;;
11541;SDS011;5827;49.482;7.716;2023-03-04T03:23:15;71.00;;;38.85;;
11541;SDS011;5827;49.482;7.716;2023-03-04T03:25:17;67.90;;;38.50;;
11541;SDS011;5827;49.482;7.716;2023-03-04T03:27:18;67.45;;;36.97;;
11541;SDS011;5827;49.482;7.716;2023-03-04T03:29:20;65.70;;;37.53;;
11541;SDS011;5827;49.482;7.716;2023-03-04T03:31:23;68.87;;;38.23;;
11541;SDS011;5827;49.482;7.716;2023-03-04T03:33:24;66.93;;;37.23;;
11541;SDS011;5827;49.482;7.716;2023-03-04T03:35:26;69.43;;;37.75;;
11541;SDS011;5827;49.482;7.716;2023-03-04T03:37:28;68.13;;;37.28;;
11541;SDS011;5827;49.482;7.716;2023-03-04T03:39:29;69.00;;;37.30;;
11541;SDS011;5827;49.482;7.716;2023-03-04T03:41:31;67.80;;;38.25;;
11541;SDS011;5827;49.482;7.716;2023-03-04T03:43:32;68.60;;;37.47;;
11541;SDS011;5827;49.482;7.716;2023-03-04T03:45:34;72.18;;;38.55;;
11541;SDS011;5827;49.482;7.716;2023-03-04T03:47:37;71.72;;;39.47;;
11541;SDS011;5827;49.482;7.716;2023-03-04T03:49:38;71.13;;;37.85;;
11541;SDS011;5827;49.482;7.716;2023-03-04T03:51:40;70.47;;;38.70;;
11541;SDS011;5827;49.482;7.716;2023-03-04T03:53:41;72.22;;;38.28;;
11541;SDS011;5827;49.482;7.716;2023-03-04T03:55:43;73.22;;;39.15;;
11541;SDS011;5827;49.482;7.716;2023-03-04T03:57:44;72.90;;;39.33;;
11541;SDS011;5827;49.482;7.716;2023-03-04T03:59:46;73.32;;;39.72;;
11541;SDS011;5827;49.482;7.716;2023-03-04T04:01:47;66.60;;;36.03;;
11541;SDS011;5827;49.482;7.716;2023-03-04T04:03:50;71.55;;;38.67;;
11541;SDS011;5827;49.482;7.716;2023-03-04T04:05:51;71.18;;;38.58;;
11541;SDS011;5827;49.482;7.716;2023-03-04T04:07:53;70.43;;;38.85;;
11541;SDS011;5827;49.482;7.716;2023-03-04T04:09:54;69.22;;;38.10;;
11541;SDS011;5827;49.482;7.716;2023-03-04T04:11:56;68.75;;;37.97;;
11541;SDS011;5827;49.482;7.716;2023-03-04T04:13:58;70.17;;;37.13;;
11541;SDS011;5827;49.482;7.716;2023-03-04T04:16:00;69.93;;;37.45;;
11541;SDS011;5827;49.482;7.716;2023-03-04T04:18:02;63.08;;;35.45;;
11541;SDS011;5827;49.482;7.716;2023-03-04T04:20:06;67.80;;;37.13;;
11541;SDS011;5827;49.482;7.716;2023-03-04T04:22:12;70.72;;;37.55;;
11541;SDS011;5827;49.482;7.716;2023-03-04T04:24:16;68.50;;;38.00;;
11541;SDS011;5827;49.482;7.716;2023-03-04T04:26:19;71.32;;;38.08;;
11541;SDS011;5827;49.482;7.716;2023-03-04T04:28:21;68.18;;;37.20;;
11541;SDS011;5827;49.482;7.716;2023-03-04T04:30:22;72.57;;;38.17;;
11541;SDS011;5827;49.482;7.716;2023-03-04T04:32:24;72.88;;;38.05;;
11541;SDS011;5827;49.482;7.716;2023-03-04T04:34:25;69.30;;;36.95;;
11541;SDS011;5827;49.482;7.716;2023-03-04T04:36:28;69.00;;;37.38;;
11541;SDS011;5827;49.482;7.716;2023-03-04T04:38:30;70.78;;;37.60;;
11541;SDS011;5827;49.482;7.716;2023-03-04T04:40:31;72.13;;;37.47;;
11541;SDS011;5827;49.482;7.716;2023-03-04T04:42:33;70.10;;;36.67;;
11541;SDS011;5827;49.482;7.716;2023-03-04T04:44:34;69.63;;;37.53;;
11541;SDS011;5827;49.482;7.716;2023-03-04T04:46:38;68.27;;;37.50;;
11541;SDS011;5827;49.482;7.716;2023-03-04T04:48:40;67.18;;;36.97;;
11541;SDS011;5827;49.482;7.716;2023-03-04T04:50:42;72.63;;;38.15;;
11541;SDS011;5827;49.482;7.716;2023-03-04T04:52:45;71.03;;;37.03;;
11541;SDS011;5827;49.482;7.716;2023-03-04T04:54:46;72.10;;;39.08;;
11541;SDS011;5827;49.482;7.716;2023-03-04T04:56:48;69.05;;;36.75;;
11541;SDS011;5827;49.482;7.716;2023-03-04T04:58:49;74.40;;;39.00;;
11541;SDS011;5827;49.482;7.716;2023-03-04T05:00:50;70.57;;;38.42;;
11541;SDS011;5827;49.482;7.716;2023-03-04T05:02:52;72.80;;;37.67;;
11541;SDS011;5827;49.482;7.716;2023-03-04T05:04:53;72.27;;;38.43;;
11541;SDS011;5827;49.482;7.716;2023-03-04T05:06:55;68.03;;;36.55;;
11541;SDS011;5827;49.482;7.716;2023-03-04T05:08:58;70.63;;;37.63;;
11541;SDS011;5827;49.482;7.716;2023-03-04T05:11:01;71.22;;;37.67;;
11541;SDS011;5827;49.482;7.716;2023-03-04T05:13:03;68.70;;;37.08;;
11541;SDS011;5827;49.482;7.716;2023-03-04T05:15:05;69.50;;;36.83;;
11541;SDS011;5827;49.482;7.716;2023-03-04T05:17:07;72.05;;;37.67;;
11541;SDS011;5827;49.482;7.716;2023-03-04T05:19:08;69.13;;;37.17;;
11541;SDS011;5827;49.482;7.716;2023-03-04T05:21:10;72.15;;;37.85;;
11541;SDS011;5827;49.482;7.716;2023-03-04T05:23:11;70.53;;;37.33;;
11541;SDS011;5827;49.482;7.716;2023-03-04T05:25:14;69.28;;;37.35;;
11541;SDS011;5827;49.482;7.716;2023-03-04T05:27:16;69.70;;;37.03;;
11541;SDS011;5827;49.482;7.716;2023-03-04T05:29:17;72.47;;;38.50;;
11541;SDS011;5827;49.482;7.716;2023-03-04T05:31:19;72.95;;;37.88;;
11541;SDS011;5827;49.482;7.716;2023-03-04T05:33:20;74.03;;;39.00;;
11541;SDS011;5827;49.482;7.716;2023-03-04T05:35:22;69.75;;;37.15;;
11541;SDS011;5827;49.482;7.716;2023-03-04T05:37:23;70.50;;;39.15;;
11541;SDS011;5827;49.482;7.716;2023-03-04T05:39:25;69.93;;;37.77;;
11541;SDS011;5827;49.482;7.716;2023-03-04T05:41:28;66.82;;;36.70;;
11541;SDS011;5827;49.482;7.716;2023-03-04T05:43:29;69.63;;;37.05;;
11541;SDS011;5827;49.482;7.716;2023-03-04T05:45:33;68.93;;;36.27;;
11541;SDS011;5827;49.482;7.716;2023-03-04T05:47:35;67.63;;;36.67;;
11541;SDS011;5827;49.482;7.716;2023-03-04T05:49:36;65.07;;;35.60;;
11541;SDS011;5827;49.482;7.716;2023-03-04T05:51:38;70.50;;;37.28;;
11541;SDS011;5827;49.482;7.716;2023-03-04T05:53:40;69.20;;;36.90;;
11541;SDS011;5827;49.482;7.716;2023-03-04T05:55:44;66.93;;;36.70;;
11541;SDS011;5827;49.482;7.716;2023-03-04T05:57:48;68.07;;;36.65;;
11541;SDS011;5827;49.482;7.716;2023-03-04T05:59:49;68.88;;;36.90;;
11541;SDS011;5827;49.482;7.716;2023-03-04T06:01:51;65.13;;;36.30;;
11541;SDS011;5827;49.482;7.716;2023-03-04T06:03:52;70.73;;;37.10;;
11541;SDS011;5827;49.482;7.716;2023-03-04T06:05:54;68.22;;;37.35;;
11541;SDS011;5827;49.482;7.716;2023-03-04T06:07:56;67.93;;;36.43;;
11541;SDS011;5827;49.482;7.716;2023-03-04T06:09:57;68.55;;;36.67;;
11541;SDS011;5827;49.482;7.716;2023-03-04T06:11:59;66.68;;;37.25;;
11541;SDS011;5827;49.482;7.716;2023-03-04T06:14:02;66.22;;;36.35;;
11541;SDS011;5827;49.482;7.716;2023-03-04T06:16:03;68.95;;;36.97;;
11541;SDS011;5827;49.482;7.716;2023-03-04T06:18:06;68.15;;;36.33;;
11541;SDS011;5827;49.482;7.716;2023-03-04T06:20:09;65.90;;;36.95;;
11541;SDS011;5827;49.482;7.716;2023-03-04T06:22:11;68.72;;;37.75;;
11541;SDS011;5827;49.482;7.716;2023-03-04T06:24:13;65.90;;;36.63;;
11541;SDS011;5827;49.482;7.716;2023-03-04T06:26:15;64.80;;;35.65;;
11541;SDS011;5827;49.482;7.716;2023-03-04T06:28:16;68.85;;;37.15;;
11541;SDS011;5827;49.482;7.716;2023-03-04T06:30:19;69.10;;;37.17;;
11541;SDS011;5827;49.482;7.716;2023-03-04T06:32:21;69.60;;;37.38;;
11541;SDS011;5827;49.482;7.716;2023-03-04T06:34:22;67.65;;;36.75;;
11541;SDS011;5827;49.482;7.716;2023-03-04T06:36:24;65.23;;;35.57;;
11541;SDS011;5827;49.482;7.716;2023-03-04T06:38:25;67.93;;;36.30;;
11541;SDS011;5827;49.482;7.716;2023-03-04T06:40:27;67.38;;;36.35;;
11541;SDS011;5827;49.482;7.716;2023-03-04T06:42:29;73.15;;;38.08;;
11541;SDS011;5827;49.482;7.716;2023-03-04T06:44:30;72.10;;;38.70;;
11541;SDS011;5827;49.482;7.716;2023-03-04T06:46:33;72.67;;;38.30;;
11541;SDS011;5827;49.482;7.716;2023-03-04T06:48:35;67.47;;;37.42;;
11541;SDS011;5827;49.482;7.716;2023-03-04T06:50:38;68.22;;;38.45;;
11541;SDS011;5827;49.482;7.716;2023-03-04T06:52:39;70.82;;;38.13;;
11541;SDS011;5827;49.482;7.716;2023-03-04T06:54:41;70.22;;;37.47;;
11541;SDS011;5827;49.482;7.716;2023-03-04T06:56:43;70.90;;;39.88;;
11541;SDS011;5827;49.482;7.716;2023-03-04T06:58:44;75.10;;;39.05;;
11541;SDS011;5827;49.482;7.716;2023-03-04T07:00:46;71.65;;;39.10;;
11541;SDS011;5827;49.482;7.716;2023-03-04T07:02:49;72.35;;;38.55;;
11541;SDS011;5827;49.482;7.716;2023-03-04T07:04:51;71.90;;;38.33;;
11541;SDS011;5827;49.482;7.716;2023-03-04T07:06:52;73.43;;;40.38;;
11541;SDS011;5827;49.482;7.716;2023-03-04T07:08:54;98.68;;;55.03;;
11541;SDS011;5827;49.482;7.716;2023-03-04T07:10:56;107.10;;;57.83;;
11541;SDS011;5827;49.482;7.716;2023-03-04T07:12:58;83.70;;;46.55;;
11541;SDS011;5827;49.482;7.716;2023-03-04T07:14:59;94.50;;;52.75;;
11541;SDS011;5827;49.482;7.716;2023-03-04T07:17:01;87.60;;;47.90;;
11541;SDS011;5827;49.482;7.716;2023-03-04T07:19:03;81.78;;;45.83;;
11541;SDS011;5827;49.482;7.716;2023-03-04T07:21:05;82.78;;;46.08;;
11541;SDS011;5827;49.482;7.716;2023-03-04T07:23:07;84.15;;;45.83;;
11541;SDS011;5827;49.482;7.716;2023-03-04T07:25:09;76.63;;;42.53;;
11541;SDS011;5827;49.482;7.716;2023-03-04T07:27:10;77.78;;;43.10;;
11541;SDS011;5827;49.482;7.716;2023-03-04T07:29:12;78.10;;;42.28;;
11541;SDS011;5827;49.482;7.716;2023-03-04T07:31:18;77.68;;;43.90;;
11541;SDS011;5827;49.482;7.716;2023-03-04T07:33:22;78.13;;;41.87;;
11541;SDS011;5827;49.482;7.716;2023-03-04T07:35:25;80.20;;;42.67;;
11541;SDS011;5827;49.482;7.716;2023-03-04T07:37:26;76.38;;;42.58;;
11541;SDS011;5827;49.482;7.716;2023-03-04T07:39:28;77.40;;;42.13;;
11541;SDS011;5827;49.482;7.716;2023-03-04T07:41:30;77.73;;;41.47;;
11541;SDS011;5827;49.482;7.716;2023-03-04T07:43:35;76.97;;;42.25;;
11541;SDS011;5827;49.482;7.716;2023-03-04T07:45:36;81.45;;;44.25;;
11541;SDS011;5827;49.482;7.716;2023-03-04T07:47:38;75.80;;;42.83;;
11541;SDS011;5827;49.482;7.716;2023-03-04T07:49:40;77.60;;;42.83;;
11541;SDS011;5827;49.482;7.716;2023-03-04T07:51:43;79.10;;;43.22;;
11541;SDS011;5827;49.482;7.716;2023-03-04T07:53:45;82.43;;;43.90;;
11541;SDS011;5827;49.482;7.716;2023-03-04T07:55:48;77.10;;;43.42;;
11541;SDS011;5827;49.482;7.716;2023-03-04T07:57:50;80.45;;;44.72;;
11541;SDS011;5827;49.482;7.716;2023-03-04T07:59:51;75.88;;;42.45;;
11541;SDS011;5827;49.482;7.716;2023-03-04T08:01:53;78.15;;;43.30;;
11541;SDS011;5827;49.482;7.716;2023-03-04T08:03:54;75.72;;;42.70;;
11541;SDS011;5827;49.482;7.716;2023-03-04T08:05:56;82.00;;;43.78;;
11541;SDS011;5827;49.482;7.716;2023-03-04T08:07:59;74.97;;;42.88;;
11541;SDS011;5827;49.482;7.716;2023-03-04T08:10:00;81.43;;;45.80;;
11541;SDS011;5827;49.482;7.716;2023-03-04T08:12:02;85.90;;;47.72;;
11541;SDS011;5827;49.482;7.716;2023-03-04T08:14:04;82.80;;;47.35;;
11541;SDS011;5827;49.482;7.716;2023-03-04T08:16:06;83.63;;;45.58;;
11541;SDS011;5827;49.482;7.716;2023-03-04T08:18:08;81.70;;;46.05;;
11541;SDS011;5827;49.482;7.716;2023-03-04T08:20:10;81.00;;;45.90;;
11541;SDS011;5827;49.482;7.716;2023-03-04T08:22:12;78.72;;;43.72;;
11541;SDS011;5827;49.482;7.716;2023-03-04T08:24:15;81.25;;;44.15;;
11541;SDS011;5827;49.482;7.716;2023-03-04T08:26:17;77.80;;;44.47;;
11541;SDS011;5827;49.482;7.716;2023-03-04T08:28:20;79.30;;;44.08;;
11541;SDS011;5827;49.482;7.716;2023-03-04T08:30:22;78.90;;;43.03;;
11541;SDS011;5827;49.482;7.716;2023-03-04T08:32:23;77.30;;;42.63;;
11541;SDS011;5827;49.482;7.716;2023-03-04T08:34:26;81.13;;;43.35;;
11541;SDS011;5827;49.482;7.716;2023-03-04T08:36:28;80.97;;;43.40;;
11541;SDS011;5827;49.482;7.716;2023-03-04T08:38:29;83.72;;;43.88;;
11541;SDS011;5827;49.482;7.716;2023-03-04T08:40:33;75.80;;;42.42;;
11541;SDS011;5827;49.482;7.716;2023-03-04T08:42:34;83.85;;;44.38;;
11541;SDS011;5827;49.482;7.716;2023-03-04T08:44:36;83.18;;;44.80;;
11541;SDS011;5827;49.482;7.716;2023-03-04T08:46:38;82.28;;;44.22;;
11541;SDS011;5827;49.482;7.716;2023-03-04T08:48:41;80.90;;;44.30;;
11541;SDS011;5827;49.482;7.716;2023-03-04T08:50:43;86.68;;;44.47;;
11541;SDS011;5827;49.482;7.716;2023-03-04T08:52:44;81.47;;;44.38;;
11541;SDS011;5827;49.482;7.716;2023-03-04T08:54:46;74.70;;;42.10;;
11541;SDS011;5827;49.482;7.716;2023-03-04T08:56:49;80.32;;;44.55;;
11541;SDS011;5827;49.482;7.716;2023-03-04T08:58:50;82.88;;;44.40;;
11541;SDS011;5827;49.482;7.716;2023-03-04T09:00:52;84.35;;;45.65;;
11541;SDS011;5827;49.482;7.716;2023-03-04T09:02:53;80.70;;;44.55;;
11541;SDS011;5827;49.482;7.716;2023-03-04T09:04:55;82.13;;;43.95;;
11541;SDS011;5827;49.482;7.716;2023-03-04T09:06:57;80.15;;;44.30;;
11541;SDS011;5827;49.482;7.716;2023-03-04T09:08:58;80.72;;;42.35;;
11541;SDS011;5827;49.482;7.716;2023-03-04T09:11:01;76.85;;;43.08;;
11541;SDS011;5827;49.482;7.716;2023-03-04T09:13:04;77.28;;;43.60;;
11541;SDS011;5827;49.482;7.716;2023-03-04T09:15:06;81.43;;;44.30;;
11541;SDS011;5827;49.482;7.716;2023-03-04T09:17:08;80.10;;;43.73;;
11541;SDS011;5827;49.482;7.716;2023-03-04T09:19:09;84.75;;;45.60;;
11541;SDS011;5827;49.482;7.716;2023-03-04T09:21:11;81.05;;;44.30;;
11541;SDS011;5827;49.482;7.716;2023-03-04T09:23:12;78.70;;;43.90;;
11541;SDS011;5827;49.482;7.716;2023-03-04T09:25:14;77.63;;;43.60;;
11541;SDS011;5827;49.482;7.716;2023-03-04T09:27:16;80.07;;;44.08;;
11541;SDS011;5827;49.482;7.716;2023-03-04T09:29:19;77.82;;;43.15;;
11541;SDS011;5827;49.482;7.716;2023-03-04T09:31:21;77.90;;;44.47;;
11541;SDS011;5827;49.482;7.716;2023-03-04T09:33:23;74.70;;;43.00;;
11541;SDS011;5827;49.482;7.716;2023-03-04T09:35:24;77.65;;;43.80;;
11541;SDS011;5827;49.482;7.716;2023-03-04T09:37:25;75.10;;;43.33;;
11541;SDS011;5827;49.482;7.716;2023-03-04T09:39:27;77.93;;;43.03;;
11541;SDS011;5827;49.482;7.716;2023-03-04T09:41:31;78.72;;;45.15;;
11541;SDS011;5827;49.482;7.716;2023-03-04T09:43:37;80.63;;;44.17;;
11541;SDS011;5827;49.482;7.716;2023-03-04T09:45:42;75.50;;;43.47;;
11541;SDS011;5827;49.482;7.716;2023-03-04T09:47:47;79.45;;;44.60;;
11541;SDS011;5827;49.482;7.716;2023-03-04T09:49:52;78.25;;;44.00;;
11541;SDS011;5827;49.482;7.716;2023-03-04T09:51:58;80.72;;;44.47;;
11541;SDS011;5827;49.482;7.716;2023-03-04T09:54:04;74.50;;;43.92;;
11541;SDS011;5827;49.482;7.716;2023-03-04T09:56:08;79.70;;;45.17;;
11541;SDS011;5827;49.482;7.716;2023-03-04T09:58:14;79.10;;;43.80;;
11541;SDS011;5827;49.482;7.716;2023-03-04T10:00:29;77.88;;;43.90;;
11541;SDS011;5827;49.482;7.716;2023-03-04T10:02:41;77.47;;;44.03;;
11541;SDS011;5827;49.482;7.716;2023-03-04T10:04:46;74.15;;;42.88;;
11541;SDS011;5827;49.482;7.716;2023-03-04T10:06:50;71.03;;;42.72;;
11541;SDS011;5827;49.482;7.716;2023-03-04T10:08:54;73.68;;;42.40;;
11541;SDS011;5827;49.482;7.716;2023-03-04T10:11:00;67.93;;;39.73;;
11541;SDS011;5827;49.482;7.716;2023-03-04T10:13:03;65.22;;;40.03;;
11541;SDS011;5827;49.482;7.716;2023-03-04T10:15:17;66.03;;;39.42;;
11541;SDS011;5827;49.482;7.716;2023-03-04T10:17:23;63.38;;;39.47;;
11541;SDS011;5827;49.482;7.716;2023-03-04T10:19:35;64.07;;;39.15;;
11541;SDS011;5827;49.482;7.716;2023-03-04T10:21:49;64.25;;;38.92;;
11541;SDS011;5827;49.482;7.716;2023-03-04T10:23:51;60.28;;;37.50;;
11541;SDS011;5827;49.482;7.716;2023-03-04T10:25:53;61.08;;;37.10;;
11541;SDS011;5827;49.482;7.716;2023-03-04T10:27:56;61.90;;;38.28;;
11541;SDS011;5827;49.482;7.716;2023-03-04T10:30:01;57.63;;;36.30;;
11541;SDS011;5827;49.482;7.716;2023-03-04T10:32:03;62.53;;;38.00;;
11541;SDS011;5827;49.482;7.716;2023-03-04T10:34:05;61.13;;;36.65;;
11541;SDS011;5827;49.482;7.716;2023-03-04T10:36:14;57.78;;;36.00;;
11541;SDS011;5827;49.482;7.716;2023-03-04T10:38:28;60.20;;;35.92;;
11541;SDS011;5827;49.482;7.716;2023-03-04T10:40:35;57.33;;;34.67;;
11541;SDS011;5827;49.482;7.716;2023-03-04T10:42:38;58.35;;;35.13;;
11541;SDS011;5827;49.482;7.716;2023-03-04T10:44:40;56.13;;;34.50;;
11541;SDS011;5827;49.482;7.716;2023-03-04T10:46:44;54.05;;;34.80;;
11541;SDS011;5827;49.482;7.716;2023-03-04T10:48:46;56.87;;;34.37;;
11541;SDS011;5827;49.482;7.716;2023-03-04T10:50:48;58.42;;;35.35;;
11541;SDS011;5827;49.482;7.716;2023-03-04T10:52:51;56.90;;;34.80;;
11541;SDS011;5827;49.482;7.716;2023-03-04T10:54:55;57.55;;;34.90;;
11541;SDS011;5827;49.482;7.716;2023-03-04T10:56:59;54.53;;;34.15;;
11541;SDS011;5827;49.482;7.716;2023-03-04T11:01:33;54.17;;;34.47;;
11541;SDS011;5827;49.482;7.716;2023-03-04T11:03:35;54.42;;;33.83;;
11541;SDS011;5827;49.482;7.716;2023-03-04T11:05:37;55.67;;;33.25;;
11541;SDS011;5827;49.482;7.716;2023-03-04T11:07:39;51.15;;;31.73;;
11541;SDS011;5827;49.482;7.716;2023-03-04T11:09:43;51.80;;;31.67;;
11541;SDS011;5827;49.482;7.716;2023-03-04T11:11:45;52.63;;;31.13;;
11541;SDS011;5827;49.482;7.716;2023-03-04T11:13:49;50.25;;;30.92;;
11541;SDS011;5827;49.482;7.716;2023-03-04T11:15:53;51.10;;;30.67;;
11541;SDS011;5827;49.482;7.716;2023-03-04T11:17:58;52.85;;;32.58;;
11541;SDS011;5827;49.482;7.716;2023-03-04T11:20:04;50.03;;;32.00;;
11541;SDS011;5827;49.482;7.716;2023-03-04T11:22:13;49.80;;;30.75;;
11541;SDS011;5827;49.482;7.716;2023-03-04T11:24:18;48.63;;;29.40;;
11541;SDS011;5827;49.482;7.716;2023-03-04T11:26:27;52.13;;;30.70;;
11541;SDS011;5827;49.482;7.716;2023-03-04T11:28:35;50.70;;;30.90;;
11541;SDS011;5827;49.482;7.716;2023-03-04T11:30:42;48.33;;;29.27;;
11541;SDS011;5827;49.482;7.716;2023-03-04T11:32:46;48.25;;;29.23;;
11541;SDS011;5827;49.482;7.716;2023-03-04T11:34:52;52.33;;;29.63;;
11541;SDS011;5827;49.482;7.716;2023-03-04T11:36:58;48.22;;;28.00;;
11541;SDS011;5827;49.482;7.716;2023-03-04T11:39:04;49.03;;;29.05;;
11541;SDS011;5827;49.482;7.716;2023-03-04T11:41:18;46.50;;;27.63;;
11541;SDS011;5827;49.482;7.716;2023-03-04T11:43:27;44.75;;;25.30;;
11541;SDS011;5827;49.482;7.716;2023-03-04T11:45:39;44.08;;;26.33;;
11541;SDS011;5827;49.482;7.716;2023-03-04T11:47:59;43.78;;;26.23;;
11541;SDS011;5827;49.482;7.716;2023-03-04T11:50:14;47.25;;;26.35;;
11541;SDS011;5827;49.482;7.716;2023-03-04T11:52:36;46.58;;;26.02;;
11541;SDS011;5827;49.482;7.716;2023-03-04T11:54:55;51.78;;;28.95;;
11541;SDS011;5827;49.482;7.716;2023-03-04T11:57:07;48.10;;;30.02;;
11541;SDS011;5827;49.482;7.716;2023-03-04T11:59:19;47.47;;;27.50;;
11541;SDS011;5827;49.482;7.716;2023-03-04T12:01:37;50.03;;;28.85;;
11541;SDS011;5827;49.482;7.716;2023-03-04T12:03:55;48.53;;;26.30;;
11541;SDS011;5827;49.482;7.716;2023-03-04T12:06:07;47.38;;;27.70;;
11541;SDS011;5827;49.482;7.716;2023-03-04T12:08:20;48.83;;;27.90;;
11541;SDS011;5827;49.482;7.716;2023-03-04T12:10:35;43.50;;;25.45;;
11541;SDS011;5827;49.482;7.716;2023-03-04T12:12:51;42.65;;;24.98;;
11541;SDS011;5827;49.482;7.716;2023-03-04T12:15:11;44.80;;;26.65;;